createdAt,value
2022-10-25T00:02:21.571Z,14.00
2022-10-25T00:04:52.343Z,13.90
2022-10-25T00:07:22.936Z,14.00
2022-10-25T00:09:53.536Z,13.80
2022-10-25T00:12:24.056Z,14.00
2022-10-25T00:14:55.033Z,14.00
2022-10-25T00:17:25.561Z,14.10
2022-10-25T00:19:56.099Z,14.00
2022-10-25T00:22:26.698Z,14.00
2022-10-25T00:24:57.268Z,13.80
2022-10-25T00:27:27.833Z,13.70
2022-10-25T00:29:58.513Z,13.70
2022-10-25T00:32:29.325Z,13.70
2022-10-25T00:35:00.052Z,13.80
2022-10-25T00:37:31.174Z,13.80
2022-10-25T00:40:01.750Z,13.60
2022-10-25T00:42:32.336Z,13.60
2022-10-25T00:45:05.081Z,13.60
2022-10-25T00:47:48.093Z,13.80
2022-10-25T00:50:33.596Z,13.80
2022-10-25T00:53:09.794Z,13.70
2022-10-25T00:55:45.091Z,13.80
2022-10-25T00:58:18.428Z,13.90
2022-10-25T01:00:49.347Z,14.00
2022-10-25T01:03:22.631Z,14.00
2022-10-25T01:05:55.278Z,14.10
2022-10-25T01:08:26.710Z,14.00
2022-10-25T01:10:57.300Z,13.90
2022-10-25T01:13:28.008Z,13.60
2022-10-25T01:16:04.256Z,13.50
2022-10-25T01:18:41.144Z,13.60
2022-10-25T01:21:34.611Z,13.60
2022-10-25T01:24:37.255Z,13.30
2022-10-25T01:27:54.176Z,13.40
2022-10-25T01:30:26.697Z,13.70
2022-10-25T01:33:05.721Z,13.70
2022-10-25T01:35:40.235Z,13.70
2022-10-25T01:38:22.627Z,13.80
2022-10-25T01:40:56.308Z,13.70
2022-10-25T01:43:32.461Z,13.60
2022-10-25T01:46:08.086Z,13.50
2022-10-25T01:48:42.323Z,13.30
2022-10-25T01:51:15.362Z,13.20
2022-10-25T01:53:52.495Z,13.40
2022-10-25T01:56:27.540Z,13.50
2022-10-25T01:59:14.556Z,13.20
2022-10-25T02:01:51.169Z,13.40
2022-10-25T02:04:25.251Z,13.40
2022-10-25T02:06:58.783Z,13.30
2022-10-25T02:09:33.953Z,13.20
2022-10-25T02:12:07.692Z,13.20
2022-10-25T02:14:41.256Z,13.10
2022-10-25T02:17:15.133Z,13.10
2022-10-25T02:19:48.687Z,13.00
2022-10-25T02:22:22.085Z,13.20
2022-10-25T02:24:54.783Z,13.50
2022-10-25T02:27:27.437Z,13.50
2022-10-25T02:30:00.077Z,13.30
2022-10-25T02:32:31.697Z,13.10
2022-10-25T02:35:03.473Z,13.00
2022-10-25T02:37:34.316Z,13.00
2022-10-25T02:40:05.097Z,13.00
2022-10-25T02:42:35.607Z,13.20
2022-10-25T02:45:07.797Z,13.20
2022-10-25T02:47:38.346Z,13.10
2022-10-25T02:50:10.221Z,13.00
2022-10-25T02:52:40.775Z,13.00
2022-10-25T02:55:12.215Z,13.00
2022-10-25T02:57:42.853Z,13.10
2022-10-25T03:00:16.706Z,13.10
2022-10-25T03:02:47.462Z,12.90
2022-10-25T03:05:18.477Z,12.90
2022-10-25T03:07:49.159Z,12.90
2022-10-25T03:10:19.829Z,12.90
2022-10-25T03:12:50.446Z,12.90
2022-10-25T03:15:21.068Z,13.00
2022-10-25T03:17:51.596Z,12.90
2022-10-25T03:20:22.217Z,12.90
2022-10-25T03:22:52.781Z,12.90
2022-10-25T03:25:23.376Z,12.90
2022-10-25T03:27:53.959Z,12.90
2022-10-25T03:30:24.506Z,12.90
2022-10-25T03:32:55.167Z,13.00
2022-10-25T03:35:26.371Z,13.10
2022-10-25T03:37:56.941Z,13.10
2022-10-25T03:40:27.457Z,12.80
2022-10-25T03:42:58.135Z,12.60
2022-10-25T03:45:28.772Z,12.70
2022-10-25T03:47:59.317Z,12.80
2022-10-25T03:50:30.103Z,12.70
2022-10-25T03:53:01.283Z,12.80
2022-10-25T03:55:31.911Z,12.80
2022-10-25T03:58:02.440Z,12.80
2022-10-25T04:00:33.188Z,12.80
2022-10-25T04:03:04.377Z,12.80
2022-10-25T04:05:35.400Z,12.70
2022-10-25T04:08:06.524Z,12.60
2022-10-25T04:10:37.253Z,12.60
2022-10-25T04:13:07.930Z,12.70
2022-10-25T04:15:39.985Z,12.80
2022-10-25T04:18:10.748Z,13.00
2022-10-25T04:20:41.260Z,13.00
2022-10-25T04:23:11.859Z,13.10
2022-10-25T04:25:42.493Z,12.90
2022-10-25T04:28:13.192Z,12.60
2022-10-25T04:30:44.008Z,12.40
2022-10-25T04:33:14.575Z,12.40
2022-10-25T04:35:45.205Z,12.40
2022-10-25T04:38:16.110Z,12.50
2022-10-25T04:40:48.119Z,12.40
2022-10-25T04:43:18.658Z,12.40
2022-10-25T04:45:52.087Z,12.20
2022-10-25T04:48:23.534Z,12.10
2022-10-25T04:50:54.037Z,12.00
2022-10-25T04:53:24.581Z,12.10
2022-10-25T04:56:00.957Z,12.20
2022-10-25T04:58:31.777Z,12.40
2022-10-25T05:01:04.571Z,12.20
2022-10-25T05:03:35.667Z,12.30
2022-10-25T05:06:11.932Z,12.50
2022-10-25T05:08:44.143Z,12.50
2022-10-25T05:11:16.942Z,12.50
2022-10-25T05:13:48.077Z,12.10
2022-10-25T05:16:22.886Z,12.00
2022-10-25T05:18:55.252Z,12.20
2022-10-25T05:21:29.250Z,12.40
2022-10-25T05:24:02.250Z,12.30
2022-10-25T05:26:35.284Z,12.30
2022-10-25T05:29:10.092Z,12.40
2022-10-25T05:31:39.144Z,12.40
2022-10-25T05:34:11.309Z,12.30
2022-10-25T05:36:41.832Z,12.30
2022-10-25T05:39:12.625Z,12.20
2022-10-25T05:41:43.152Z,12.30
2022-10-25T05:44:15.160Z,12.40
2022-10-25T05:46:46.218Z,12.50
2022-10-25T05:49:16.715Z,12.50
2022-10-25T05:51:47.295Z,12.50
2022-10-25T05:54:18.234Z,12.30
2022-10-25T05:56:48.804Z,12.40
2022-10-25T05:59:19.316Z,12.40
2022-10-25T06:01:50.069Z,12.20
2022-10-25T06:04:21.187Z,12.10
2022-10-25T06:06:52.315Z,12.10
2022-10-25T06:09:22.988Z,12.00
2022-10-25T06:11:53.653Z,12.00
2022-10-25T06:17:00.616Z,12.40
2022-10-25T06:19:31.139Z,12.50
2022-10-25T06:22:02.421Z,12.60
2022-10-25T06:24:33.013Z,12.10
2022-10-25T06:27:03.716Z,12.10
2022-10-25T06:29:34.344Z,12.00
2022-10-25T06:32:05.065Z,12.00
2022-10-25T06:34:35.672Z,11.90
2022-10-25T06:37:06.193Z,11.90
2022-10-25T06:39:36.740Z,12.10
2022-10-25T06:42:07.631Z,12.50
2022-10-25T06:47:17.728Z,12.50
2022-10-25T06:49:48.925Z,12.40
2022-10-25T06:52:19.500Z,12.00
2022-10-25T06:54:50.062Z,12.00
2022-10-25T06:57:20.582Z,12.20
2022-10-25T06:59:51.186Z,12.40
2022-10-25T07:02:21.995Z,12.70
2022-10-25T07:04:53.609Z,12.70
2022-10-25T07:07:24.142Z,12.80
2022-10-25T07:09:54.655Z,12.90
2022-10-25T07:12:25.216Z,12.80
2022-10-25T07:14:55.862Z,12.50
2022-10-25T07:17:26.427Z,12.40
2022-10-25T07:19:58.387Z,12.30
2022-10-25T07:22:49.276Z,12.30
2022-10-25T07:25:20.107Z,12.30
2022-10-25T07:27:50.638Z,12.50
2022-10-25T07:30:21.271Z,12.50
2022-10-25T07:32:51.941Z,12.40
2022-10-25T07:35:22.497Z,12.70
2022-10-25T07:37:54.026Z,12.80
2022-10-25T07:40:24.586Z,12.90
2022-10-25T07:42:55.120Z,13.10
2022-10-25T07:45:27.662Z,13.40
2022-10-25T07:47:57.970Z,13.50
2022-10-25T07:50:47.357Z,13.50
2022-10-25T07:53:17.909Z,13.80
2022-10-25T07:55:53.179Z,14.00
2022-10-25T07:58:23.922Z,14.10
2022-10-25T08:00:54.497Z,14.20
2022-10-25T08:03:25.060Z,14.30
2022-10-25T08:05:55.795Z,14.50
2022-10-25T08:08:26.498Z,14.60
2022-10-25T08:10:57.330Z,14.80
2022-10-25T08:13:27.913Z,14.80
2022-10-25T08:15:59.373Z,15.00
2022-10-25T08:18:30.260Z,15.10
2022-10-25T08:21:03.281Z,15.10
2022-10-25T08:23:35.028Z,15.20
2022-10-25T08:26:06.089Z,15.40
2022-10-25T08:28:36.611Z,15.40
2022-10-25T08:31:07.456Z,15.60
2022-10-25T08:33:38.215Z,15.60
2022-10-25T08:36:10.255Z,15.80
2022-10-25T08:38:40.809Z,15.80
2022-10-25T08:41:16.236Z,15.90
2022-10-25T08:44:25.654Z,16.10
2022-10-25T08:47:00.893Z,16.10
2022-10-25T08:49:36.300Z,16.20
2022-10-25T08:52:12.000Z,16.30
2022-10-25T08:54:44.369Z,16.30
2022-10-25T08:57:18.686Z,16.40
2022-10-25T08:59:52.205Z,16.40
2022-10-25T09:02:31.325Z,16.50
2022-10-25T09:05:02.115Z,16.60
2022-10-25T09:07:50.076Z,16.60
2022-10-25T09:10:33.585Z,16.70
2022-10-25T09:13:10.944Z,16.90
2022-10-25T09:15:53.516Z,16.90
2022-10-25T09:18:27.065Z,17.00
2022-10-25T09:20:58.504Z,17.10
2022-10-25T09:23:32.666Z,17.10
2022-10-25T09:26:07.036Z,17.20
2022-10-25T09:28:48.497Z,17.30
2022-10-25T09:31:21.592Z,17.40
2022-10-25T09:33:56.918Z,17.40
2022-10-25T09:36:29.311Z,17.40
2022-10-25T09:39:02.799Z,17.40
2022-10-25T09:41:36.754Z,17.40
2022-10-25T09:44:10.376Z,17.50
2022-10-25T09:46:43.696Z,17.70
2022-10-25T09:49:21.234Z,17.80
2022-10-25T09:51:57.680Z,17.90
2022-10-25T09:54:31.631Z,17.80
2022-10-25T09:57:02.404Z,17.80
2022-10-25T09:59:32.950Z,17.90
2022-10-25T10:02:03.663Z,17.90
2022-10-25T10:04:37.883Z,18.00
2022-10-25T10:07:12.162Z,18.00
2022-10-25T10:09:46.221Z,18.00
2022-10-25T10:12:21.709Z,18.00
2022-10-25T10:14:57.826Z,18.00
2022-10-25T10:17:31.115Z,18.10
2022-10-25T10:20:15.016Z,18.20
2022-10-25T10:22:52.041Z,18.20
2022-10-25T10:25:25.885Z,18.30
2022-10-25T10:27:58.671Z,18.40
2022-10-25T10:30:31.040Z,18.50
2022-10-25T10:33:03.262Z,18.80
2022-10-25T10:35:35.938Z,18.80
2022-10-25T10:38:27.919Z,18.80
2022-10-25T10:41:15.156Z,19.00
2022-10-25T10:43:45.733Z,19.20
2022-10-25T10:46:20.137Z,19.20
2022-10-25T10:48:56.070Z,19.20
2022-10-25T10:51:43.891Z,19.30
2022-10-25T10:54:29.491Z,19.10
2022-10-25T10:57:02.518Z,19.20
2022-10-25T10:59:43.165Z,19.20
2022-10-25T11:02:31.266Z,19.30
2022-10-25T11:05:02.168Z,19.70
2022-10-25T11:07:35.392Z,19.70
2022-10-25T11:10:30.928Z,19.60
2022-10-25T11:13:19.156Z,19.70
2022-10-25T11:16:18.140Z,19.90
2022-10-25T11:19:05.782Z,20.40
2022-10-25T11:21:50.384Z,20.70
2022-10-25T11:24:28.028Z,20.70
2022-10-25T11:27:05.333Z,20.60
2022-10-25T11:29:54.488Z,20.70
2022-10-25T11:33:01.726Z,20.60
2022-10-25T11:35:48.435Z,20.60
2022-10-25T11:38:22.907Z,20.60
2022-10-25T11:41:00.139Z,20.60
2022-10-25T11:43:44.796Z,21.10
2022-10-25T11:46:18.634Z,21.10
2022-10-25T11:49:00.119Z,20.90
2022-10-25T11:51:34.781Z,20.70
2022-10-25T11:54:17.992Z,20.80
2022-10-25T11:56:54.056Z,21.10
2022-10-25T11:59:28.344Z,21.20
2022-10-25T12:02:13.120Z,21.60
2022-10-25T12:04:56.776Z,21.80
2022-10-25T12:07:30.970Z,22.10
2022-10-25T12:10:06.900Z,22.30
2022-10-25T12:12:43.795Z,21.80
2022-10-25T12:15:22.921Z,21.00
2022-10-25T12:17:54.332Z,20.90
2022-10-25T12:20:28.023Z,21.30
2022-10-25T12:23:01.888Z,21.30
2022-10-25T12:25:36.061Z,21.20
2022-10-25T12:28:10.272Z,21.00
2022-10-25T12:30:44.043Z,20.90
2022-10-25T12:33:19.472Z,21.00
2022-10-25T12:35:53.910Z,20.90
2022-10-25T12:38:27.613Z,21.00
2022-10-25T12:41:01.436Z,21.00
2022-10-25T12:43:35.543Z,21.00
2022-10-25T12:46:49.129Z,20.60
2022-10-25T12:49:36.148Z,20.40
2022-10-25T12:52:22.290Z,20.70
2022-10-25T12:55:14.566Z,20.80
2022-10-25T12:57:49.141Z,20.60
2022-10-25T13:00:21.654Z,20.70
2022-10-25T13:03:04.855Z,20.60
2022-10-25T13:05:58.517Z,20.70
2022-10-25T13:08:47.893Z,20.70
2022-10-25T13:11:18.639Z,20.60
2022-10-25T13:13:54.762Z,20.60
2022-10-25T13:16:30.181Z,20.20
2022-10-25T13:22:43.431Z,20.20
2022-10-25T13:25:21.741Z,20.10
2022-10-25T13:31:20.304Z,20.10
2022-10-25T13:34:05.797Z,20.00
2022-10-25T13:36:51.752Z,20.00
2022-10-25T13:39:25.181Z,19.80
2022-10-25T13:41:58.927Z,19.50
2022-10-25T13:44:30.326Z,19.40
2022-10-25T13:47:01.560Z,19.40
2022-10-25T13:49:34.866Z,19.40
2022-10-25T13:52:08.274Z,19.50
2022-10-25T13:54:47.029Z,19.50
2022-10-25T13:57:51.499Z,19.40
2022-10-25T14:03:38.212Z,19.60
2022-10-25T14:06:18.425Z,19.70
2022-10-25T14:08:53.680Z,19.70
2022-10-25T14:11:27.273Z,19.70
2022-10-25T14:14:01.364Z,19.70
2022-10-25T14:16:33.739Z,19.70
2022-10-25T14:19:08.650Z,19.60
2022-10-25T14:21:39.381Z,19.50
2022-10-25T14:24:13.698Z,19.40
2022-10-25T14:26:53.517Z,19.20
2022-10-25T14:29:26.584Z,19.10
2022-10-25T14:31:58.243Z,19.00
2022-10-25T14:34:31.824Z,19.10
2022-10-25T14:37:02.366Z,19.30
2022-10-25T14:39:33.004Z,19.50
2022-10-25T14:42:05.113Z,19.70
2022-10-25T14:44:46.457Z,19.80
2022-10-25T14:47:30.170Z,19.80
2022-10-25T14:50:01.575Z,19.80
2022-10-25T14:52:33.713Z,19.80
2022-10-25T14:55:07.262Z,19.70
2022-10-25T14:57:38.836Z,19.50
2022-10-25T15:00:19.911Z,19.40
2022-10-25T15:02:53.596Z,19.30
2022-10-25T15:05:27.002Z,19.10
2022-10-25T15:07:59.453Z,19.10
2022-10-25T15:13:23.687Z,18.90
2022-10-25T15:15:54.920Z,18.80
2022-10-25T15:18:34.141Z,18.90
2022-10-25T15:21:14.026Z,18.90
2022-10-25T15:23:47.275Z,18.80
2022-10-25T15:26:29.052Z,18.80
2022-10-25T15:29:02.045Z,18.80
2022-10-25T15:31:33.844Z,18.90
2022-10-25T15:34:06.915Z,18.90
2022-10-25T15:36:37.580Z,18.80
2022-10-25T15:39:17.093Z,18.80
2022-10-25T15:41:46.320Z,18.70
2022-10-25T15:44:17.103Z,18.60
2022-10-25T15:46:50.746Z,18.70
2022-10-25T15:49:21.628Z,18.60
2022-10-25T15:51:52.816Z,18.60
2022-10-25T15:54:25.688Z,18.60
2022-10-25T15:56:56.418Z,18.60
2022-10-25T15:59:27.104Z,18.40
2022-10-25T16:01:57.934Z,18.20
2022-10-25T16:04:28.692Z,18.10
2022-10-25T16:06:59.319Z,17.90
2022-10-25T16:09:30.206Z,17.90
2022-10-25T16:12:01.261Z,17.80
2022-10-25T16:14:32.124Z,17.70
2022-10-25T16:17:02.838Z,17.70
2022-10-25T16:19:33.458Z,17.60
2022-10-25T16:22:04.139Z,17.60
2022-10-25T16:24:35.002Z,17.50
2022-10-25T16:27:06.143Z,17.50
2022-10-25T16:29:36.765Z,17.30
2022-10-25T16:32:07.998Z,17.30
2022-10-25T16:34:40.563Z,17.20
2022-10-25T16:37:12.171Z,17.20
2022-10-25T16:39:42.863Z,17.10
2022-10-25T16:42:31.341Z,17.10
2022-10-25T16:45:02.885Z,17.00
2022-10-25T16:47:33.795Z,17.00
2022-10-25T16:50:04.678Z,17.00
2022-10-25T16:52:35.499Z,16.90
2022-10-25T16:55:08.318Z,16.80
2022-10-25T16:57:39.229Z,16.70
2022-10-25T17:00:12.740Z,16.80
2022-10-25T17:02:43.430Z,16.80
2022-10-25T17:07:56.124Z,16.60
2022-10-25T17:10:27.102Z,16.50
2022-10-25T17:13:00.631Z,16.60
2022-10-25T17:15:32.233Z,16.50
2022-10-25T17:18:02.852Z,16.50
2022-10-25T17:20:33.566Z,16.40
2022-10-25T17:23:04.311Z,16.40
2022-10-25T17:25:35.205Z,16.30
2022-10-25T17:28:06.791Z,16.20
2022-10-25T17:30:37.385Z,16.30
2022-10-25T17:33:08.153Z,16.30
2022-10-25T17:35:42.921Z,16.20
2022-10-25T17:38:13.511Z,16.20
2022-10-25T17:40:46.093Z,16.20
2022-10-25T17:43:16.824Z,16.20
2022-10-25T17:45:47.450Z,16.10
2022-10-25T17:48:18.036Z,16.10
2022-10-25T17:50:49.797Z,16.00
2022-10-25T17:53:20.534Z,15.90
2022-10-25T17:55:51.228Z,15.80
2022-10-25T17:58:21.815Z,15.70
2022-10-25T18:03:32.385Z,15.70
2022-10-25T18:06:03.885Z,15.60
2022-10-25T18:08:34.580Z,15.60
2022-10-25T18:11:11.945Z,15.60
2022-10-25T18:13:43.317Z,15.50
2022-10-25T18:16:15.275Z,15.40
2022-10-25T18:18:46.842Z,15.30
2022-10-25T18:21:18.206Z,15.20
2022-10-25T18:23:50.527Z,15.20
2022-10-25T18:26:22.168Z,15.20
2022-10-25T18:28:54.098Z,15.10
2022-10-25T18:31:26.448Z,15.20
2022-10-25T18:33:59.310Z,15.30
2022-10-25T18:36:30.841Z,15.50
2022-10-25T18:39:01.970Z,15.60
2022-10-25T18:41:34.448Z,15.80
2022-10-25T18:44:07.788Z,15.60
2022-10-25T18:46:41.083Z,15.40
2022-10-25T18:49:14.627Z,15.30
2022-10-25T18:51:45.782Z,15.20
2022-10-25T18:54:17.111Z,15.10
2022-10-25T18:56:48.154Z,15.10
2022-10-25T18:59:19.872Z,15.10
2022-10-25T19:01:51.753Z,15.10
2022-10-25T19:04:23.201Z,15.10
2022-10-25T19:06:55.353Z,15.20
2022-10-25T19:09:26.415Z,15.30
2022-10-25T19:11:57.738Z,15.30
2022-10-25T19:14:29.447Z,15.40
2022-10-25T19:17:00.886Z,15.50
2022-10-25T19:19:32.473Z,15.40
2022-10-25T19:22:04.311Z,15.30
2022-10-25T19:24:37.742Z,15.40
2022-10-25T19:27:09.257Z,15.60
2022-10-25T19:29:41.951Z,15.40
2022-10-25T19:32:14.443Z,15.40
2022-10-25T19:34:46.092Z,15.50
2022-10-25T19:37:16.983Z,15.30
2022-10-25T19:42:26.906Z,15.10
2022-10-25T19:47:29.779Z,15.00
2022-10-25T19:50:01.920Z,15.00
2022-10-25T19:52:32.764Z,15.10
2022-10-25T19:57:35.186Z,15.00
2022-10-25T20:00:11.225Z,15.00
2022-10-25T20:02:41.480Z,14.90
2022-10-25T20:05:13.297Z,15.00
2022-10-25T20:07:44.291Z,15.10
2022-10-25T20:10:18.055Z,15.20
2022-10-25T20:12:50.558Z,15.20
2022-10-25T20:15:21.994Z,15.10
2022-10-25T20:17:53.737Z,15.00
2022-10-25T20:20:25.264Z,14.90
2022-10-25T20:22:56.501Z,14.80
2022-10-25T20:25:28.624Z,14.70
2022-10-25T20:28:01.650Z,14.60
2022-10-25T20:30:35.445Z,14.60
2022-10-25T20:33:07.230Z,14.60
2022-10-25T20:35:42.290Z,14.60
2022-10-25T20:38:13.274Z,14.60
2022-10-25T20:40:45.362Z,14.60
2022-10-25T20:43:16.150Z,14.70
2022-10-25T20:45:48.267Z,14.40
2022-10-25T20:48:18.929Z,14.40
2022-10-25T20:50:50.484Z,14.40
2022-10-25T20:53:21.204Z,14.60
2022-10-25T20:55:52.129Z,14.60
2022-10-25T20:58:23.814Z,14.50
2022-10-25T21:00:57.684Z,14.70
2022-10-25T21:03:30.682Z,14.80
2022-10-25T21:06:04.262Z,14.70
2022-10-25T21:08:36.495Z,14.60
2022-10-25T21:11:09.456Z,14.60
2022-10-25T21:16:18.856Z,14.70
2022-10-25T21:18:49.415Z,14.70
2022-10-25T21:21:21.469Z,14.90
2022-10-25T21:23:56.697Z,14.80
2022-10-25T21:26:27.368Z,14.70
2022-10-25T21:28:57.872Z,14.60
2022-10-25T21:31:28.595Z,14.40
2022-10-25T21:34:00.713Z,14.60
2022-10-25T21:36:31.665Z,14.50
2022-10-25T21:39:02.227Z,14.70
2022-10-25T21:41:34.080Z,14.70
2022-10-25T21:44:06.272Z,14.60
2022-10-25T21:46:37.039Z,14.70
2022-10-25T21:49:07.548Z,14.70
2022-10-25T21:51:38.180Z,14.60
2022-10-25T21:54:09.090Z,14.70
2022-10-25T21:56:39.730Z,14.70
2022-10-25T21:59:10.443Z,14.80
2022-10-25T22:01:41.050Z,14.80
2022-10-25T22:04:12.024Z,15.00
2022-10-25T22:06:42.570Z,15.00
2022-10-25T22:09:13.133Z,14.80
2022-10-25T22:14:22.937Z,14.70
2022-10-25T22:16:53.589Z,14.70
2022-10-25T22:19:24.716Z,14.70
2022-10-25T22:21:55.281Z,14.60
2022-10-25T22:24:26.061Z,14.70
2022-10-25T22:26:56.610Z,14.80
2022-10-25T22:29:27.140Z,14.90
2022-10-25T22:31:57.740Z,14.80
2022-10-25T22:34:30.120Z,14.90
2022-10-25T22:37:01.612Z,14.90
2022-10-25T22:39:32.173Z,15.00
2022-10-25T22:42:03.384Z,15.30
2022-10-25T22:44:34.014Z,15.20
2022-10-25T22:47:04.585Z,15.00
2022-10-25T22:49:35.121Z,15.00
2022-10-25T22:52:05.996Z,15.10
2022-10-25T22:54:36.571Z,15.10
2022-10-25T22:57:07.178Z,15.00
2022-10-25T22:59:37.867Z,15.00
2022-10-25T23:02:08.383Z,15.00
2022-10-25T23:04:38.959Z,15.10
2022-10-25T23:07:09.679Z,15.30
2022-10-25T23:09:40.415Z,15.70
2022-10-25T23:12:10.960Z,15.90
2022-10-25T23:14:41.657Z,15.50
2022-10-25T23:17:12.271Z,15.60
2022-10-25T23:19:42.845Z,15.40
2022-10-25T23:22:13.382Z,15.10
2022-10-25T23:24:44.078Z,15.20
2022-10-25T23:27:14.628Z,15.20
2022-10-25T23:43:54.176Z,15.40
2022-10-25T23:46:24.749Z,15.50
2022-10-25T23:48:55.263Z,15.30
2022-10-25T23:51:44.507Z,15.50
2022-10-25T23:54:15.223Z,15.60
2022-10-25T23:56:45.777Z,15.60
2022-10-25T23:59:16.460Z,15.80
